Rocha, Argentina
Current Conditions -  °F | °C
As of 2:00 PM on Wednesday 26 Nov 2014 (Local Time) from SAZM Reporting Station
Broken Clouds Broken Clouds  
Wind Chill: 26°   Ceiling: 20000
Heat Index: 26°   Visibility: 6mi
Dew Point:   Wind: 17mph
Humidity: 34%   Direction: 320°NW
Pressure: 29.88"   Gusts: NA
Location:  37.18°S, 60.97°W
Report Text: SAZM 261700Z 32015KT 9999 FEW025 BKN20026/09 Q1012
Loading
Personal Weather Stations






























Interactive Weather Map New forecast layout! Learn more

10-Day Weather Forecast

Advertisements
Track Severe Weather on mobile